Time;durP1;ratioP1;P1;durP2;ratioP2;P2;SDS_P1;SDS_P2;PMS_P1;PMS_P2;Temp;Humidity;BMP_temperature;BMP_pressure;BME280_temperature;BME280_humidity;BME280_pressure;Samples;Min_cycle;Max_cycle;Signal;HPM_P1;HPM_P2
2023/10/13 00:00:47;;;;;;;;;7.00;5.00;;;;;23.50;57.06;101250.69;2023891;28;2737749;-71
2023/10/13 00:01:59;;;;;;;;;8.50;7.50;;;;;23.49;57.14;101249.84;2018087;28;2732573;-71
2023/10/13 00:03:21;;;;;;;;;8.75;6.50;;;;;23.51;57.16;101244.34;2033066;28;1829475;-71
2023/10/13 00:04:35;;;;;;;;;4.00;2.33;;;;;23.52;57.12;101240.69;2012036;28;2739851;-73
2023/10/13 00:05:45;;;;;;;;;6.00;6.00;;;;;23.54;56.97;101248.59;2011736;28;2742017;-73
2023/10/13 00:06:56;;;;;;;;;5.67;5.67;;;;;23.53;57.28;101246.91;2034642;28;2742028;-72
2023/10/13 00:08:09;;;;;;;;;6.33;6.00;;;;;23.54;56.91;101233.38;2025525;28;2734784;-74
2023/10/13 00:09:25;;;;;;;;;6.00;6.00;;;;;23.54;57.40;101235.19;2018750;28;2733595;-72
2023/10/13 00:10:36;;;;;;;;;6.00;6.00;;;;;23.55;56.85;101236.91;2012689;28;2735674;-72
2023/10/13 00:11:47;;;;;;;;;10.00;7.25;;;;;23.55;56.94;101239.59;2029383;28;1829432;-72
2023/10/13 00:13:15;;;;;;;;;7.00;7.00;;;;;23.54;57.29;101233.38;2011303;28;2740910;-72
2023/10/13 00:14:33;;;;;;;;;6.00;5.00;;;;;23.56;56.86;101234.09;2008101;28;2736715;-72
2023/10/13 00:15:57;;;;;;;;;7.00;5.75;;;;;23.56;56.75;101228.72;2025330;28;1823171;-72
2023/10/13 00:17:08;;;;;;;;;8.00;6.00;;;;;23.57;57.13;101232.25;2010085;28;3453425;-71
2023/10/13 00:18:19;;;;;;;;;7.00;7.00;;;;;23.56;56.78;101225.19;2037161;28;1813833;-71
2023/10/13 00:19:46;;;;;;;;;8.00;8.00;;;;;23.56;56.91;101225.19;2019550;28;2735789;-72
2023/10/13 00:20:57;;;;;;;;;10.00;7.33;;;;;23.55;56.60;101221.66;2018328;28;3462789;-71
2023/10/13 00:22:09;;;;;;;;;8.50;7.50;;;;;23.56;56.83;101222.50;2027376;28;2477300;-72
2023/10/13 00:23:22;;;;;;;;;9.33;6.00;;;;;23.56;57.17;101219.81;2013890;28;3454801;-72
2023/10/13 00:24:39;;;;;;;;;7.33;7.33;;;;;23.56;57.11;101217.13;2013814;28;3459611;-72
2023/10/13 00:25:50;;;;;;;;;6.67;6.67;;;;;23.56;57.11;101219.81;2018895;28;2735710;-73
2023/10/13 00:27:04;;;;;;;;;7.00;5.67;;;;;23.56;56.96;101215.31;2033252;28;1817964;-72
2023/10/13 00:28:23;;;;;;;;;5.67;5.67;;;;;23.56;57.27;101218.00;1996197;28;3450240;-72
2023/10/13 00:29:37;;;;;;;;;9.00;7.00;;;;;23.57;57.03;101219.72;2011175;28;3456501;-73
2023/10/13 00:30:53;;;;;;;;;7.67;5.33;;;;;23.56;57.29;101220.69;2010946;28;3451297;-72
2023/10/13 00:32:11;;;;;;;;;10.00;7.67;;;;;23.57;57.28;101217.03;2009737;28;3467250;-72
2023/10/13 00:33:22;;;;;;;;;7.00;6.00;;;;;23.57;57.60;101213.50;2011773;28;2745125;-72
2023/10/13 00:34:37;;;;;;;;;7.50;6.50;;;;;23.57;57.61;101217.03;2024871;28;1822171;-73
2023/10/13 00:35:53;;;;;;;;;6.67;6.50;;;;;23.55;57.40;101210.94;2050882;28;1811832;-72
2023/10/13 00:37:18;;;;;;;;;8.00;6.50;;;;;23.56;57.27;101209.94;1994955;28;2739848;-72
2023/10/13 00:38:28;;;;;;;;;11.00;8.00;;;;;23.55;57.81;101213.63;2010483;28;3473157;-74
2023/10/13 00:39:45;;;;;;;;;9.00;7.00;;;;;23.55;57.27;101213.63;2044622;28;1822119;-72
2023/10/13 00:41:03;;;;;;;;;7.00;7.00;;;;;23.55;57.69;101215.44;2002853;28;1814881;-73
2023/10/13 00:42:25;;;;;;;;;8.00;8.00;;;;;23.54;57.59;101211.91;2024697;28;1816918;-72
2023/10/13 00:43:45;;;;;;;;;12.50;8.00;;;;;23.54;57.50;101214.59;2023628;28;1829461;-72
2023/10/13 00:44:56;;;;;;;;;9.00;7.00;;;;;23.54;57.92;101217.28;2024281;28;1829444;-72
2023/10/13 00:46:07;;;;;;;;;9.50;8.00;;;;;23.52;57.72;101213.00;2010184;28;2758600;-72
2023/10/13 00:48:54;;;;;;;;;8.25;6.00;;;;;23.51;57.70;101205.94;2033213;28;1818033;-72
2023/10/13 00:50:05;;;;;;;;;8.00;7.00;;;;;23.51;58.19;101211.31;2018651;28;3455437;-73
2023/10/13 00:51:22;;;;;;;;;9.67;8.33;;;;;23.49;57.74;101209.59;2017785;28;3464807;-72
2023/10/13 00:52:36;;;;;;;;;6.33;6.33;;;;;23.50;57.75;101199.72;2017665;28;2737758;-72
2023/10/13 00:53:47;;;;;;;;;9.75;9.00;;;;;23.49;58.29;101201.56;2023291;28;1827380;-72
2023/10/13 00:55:00;;;;;;;;;7.33;7.00;;;;;23.48;58.10;101207.03;2013449;28;2730572;-72
2023/10/13 00:56:21;;;;;;;;;4.67;4.00;;;;;23.46;57.43;101199.06;2017413;28;3458646;-73
2023/10/13 00:57:33;;;;;;;;;7.00;7.00;;;;;23.48;57.92;101201.66;2011436;28;2743050;-72
2023/10/13 00:58:52;;;;;;;;;7.25;7.00;;;;;23.48;57.30;101196.28;2024706;28;1816962;-72
2023/10/13 01:00:18;;;;;;;;;8.00;5.50;;;;;23.50;57.82;101199.72;2024473;28;1821107;-72
2023/10/13 01:01:33;;;;;;;;;11.75;9.00;;;;;23.49;57.72;101198.00;2024968;28;1826354;-72
2023/10/13 01:02:54;;;;;;;;;7.75;7.00;;;;;23.48;58.03;101198.97;2031775;28;1819123;-72
2023/10/13 01:04:08;;;;;;;;;7.00;7.00;;;;;23.48;58.01;101197.16;2010972;28;2736186;-72
2023/10/13 01:05:20;;;;;;;;;9.50;6.50;;;;;23.47;58.22;101195.44;2025048;28;1831601;-72
2023/10/13 01:06:31;;;;;;;;;9.25;9.25;;;;;23.47;58.31;101194.56;2027857;28;1835720;-72
2023/10/13 01:07:42;;;;;;;;;10.50;7.50;;;;;23.46;58.12;101196.41;2012742;28;2758590;-72
2023/10/13 01:08:59;;;;;;;;;9.25;6.00;;;;;23.45;58.57;101191.16;2039002;28;1810680;-73
2023/10/13 01:10:14;;;;;;;;;7.67;6.00;;;;;23.45;58.45;101188.50;2017116;28;3447132;-72
2023/10/13 01:11:27;;;;;;;;;8.50;8.00;;;;;23.44;58.37;101189.44;2009587;28;2741928;-72
2023/10/13 01:12:38;;;;;;;;;10.00;7.00;;;;;23.42;58.22;101192.28;2012182;28;3479425;-72
2023/10/13 01:13:51;;;;;;;;;7.00;7.00;;;;;23.42;57.76;101186.91;2027153;28;3450256;-72
2023/10/13 01:15:11;;;;;;;;;9.00;8.00;;;;;23.42;58.76;101183.38;2031158;28;1825430;-72
2023/10/13 01:16:23;;;;;;;;;10.75;8.75;;;;;23.40;59.22;101185.31;2023470;28;1810698;-72
2023/10/13 01:17:37;;;;;;;;;11.00;7.50;;;;;23.38;58.64;101186.28;2040905;28;1819080;-72
2023/10/13 01:18:50;;;;;;;;;10.67;9.00;;;;;23.37;58.31;101186.41;2018774;28;1821128;-72
2023/10/13 01:20:01;;;;;;;;;3.00;2.67;;;;;23.34;58.41;101176.78;1987959;28;2742043;-72
2023/10/13 01:21:15;;;;;;;;;6.67;6.00;;;;;23.34;58.47;101179.47;2027070;28;2734632;-71
2023/10/13 01:22:28;;;;;;;;;8.33;6.00;;;;;23.36;58.69;101177.53;2018405;28;2739937;-71
2023/10/13 01:23:42;;;;;;;;;6.00;6.00;;;;;23.36;58.27;101176.69;2014871;28;3448170;-71
2023/10/13 01:25:04;;;;;;;;;9.00;7.00;;;;;23.37;58.15;101176.56;2014968;28;2725281;-71
2023/10/13 01:26:21;;;;;;;;;8.50;7.50;;;;;23.38;58.27;101177.41;2024559;28;1829461;-72
2023/10/13 01:27:38;;;;;;;;;5.00;5.00;;;;;23.38;57.84;101172.88;2013213;28;3459636;-71
2023/10/13 01:28:50;;;;;;;;;6.33;6.33;;;;;23.40;58.00;101169.22;2019226;28;2741003;-71
2023/10/13 01:30:05;;;;;;;;;4.00;4.00;;;;;23.41;57.71;101168.28;2018168;28;3462757;-71
2023/10/13 01:31:30;;;;;;;;;8.50;7.00;;;;;23.43;57.90;101169.00;2018607;28;2739303;-71
2023/10/13 01:32:45;;;;;;;;;5.00;5.00;;;;;23.42;58.02;101160.09;2018051;28;2748804;-71
2023/10/13 01:33:58;;;;;;;;;7.00;5.00;;;;;23.42;57.73;101175.31;2018805;28;2732616;-71
2023/10/13 01:35:09;;;;;;;;;8.00;6.67;;;;;23.42;57.53;101156.53;2019062;28;2733676;-71
2023/10/13 01:36:23;;;;;;;;;8.00;6.00;;;;;23.43;57.10;101166.31;2018536;28;2734660;-71
2023/10/13 01:37:36;;;;;;;;;9.33;7.50;;;;;23.43;57.88;101156.44;2044286;28;1823252;-71
2023/10/13 01:38:47;;;;;;;;;7.00;7.00;;;;;23.45;57.78;101158.97;2000704;28;1812752;-71
2023/10/13 01:39:58;;;;;;;;;9.00;7.67;;;;;23.45;57.28;101156.31;2002330;28;1829408;-71
2023/10/13 01:41:09;;;;;;;;;9.00;5.00;;;;;23.45;57.57;101153.63;2008032;28;3453386;-71
2023/10/13 01:42:21;;;;;;;;;9.00;7.00;;;;;23.46;57.33;101149.94;2022331;28;2742043;-71
2023/10/13 01:43:32;;;;;;;;;10.00;7.67;;;;;23.46;57.27;101148.13;2010053;28;3476290;-71
2023/10/13 01:44:43;;;;;;;;;9.67;7.00;;;;;23.46;57.56;101148.13;2026696;28;3457540;-71
2023/10/13 01:45:54;;;;;;;;;9.00;8.00;;;;;23.48;57.27;101150.69;2012206;28;2742974;-71
2023/10/13 01:47:09;;;;;;;;;8.33;7.00;;;;;23.48;57.49;101148.00;2016213;28;2729432;-71
2023/10/13 01:48:21;;;;;;;;;8.67;6.00;;;;;23.50;57.69;101151.44;2011663;28;2734716;-72
2023/10/13 01:49:41;;;;;;;;;5.33;5.33;;;;;23.51;57.30;101152.31;2018952;28;2742056;-71
2023/10/13 01:50:59;;;;;;;;;8.00;7.00;;;;;23.51;57.21;101144.25;2018687;28;2730474;-71
2023/10/13 01:52:11;;;;;;;;;8.25;7.00;;;;;23.52;57.07;101137.91;2023688;28;1830497;-71
2023/10/13 01:53:22;;;;;;;;;8.50;7.00;;;;;23.52;57.49;101138.75;2016569;28;2733598;-72
2023/10/13 01:54:33;;;;;;;;;6.33;6.33;;;;;23.54;56.99;101136.78;2012715;28;3443992;-72
2023/10/13 01:55:44;;;;;;;;;12.50;10.00;;;;;23.53;56.78;101129.75;2024696;28;2774203;-72
2023/10/13 01:56:55;;;;;;;;;7.00;7.00;;;;;23.54;56.78;101133.25;2027520;28;2737877;-72
2023/10/13 01:58:13;;;;;;;;;6.00;6.00;;;;;23.54;57.02;101131.44;2042045;28;1809674;-72
2023/10/13 01:59:26;;;;;;;;;9.67;8.00;;;;;23.54;57.10;101126.06;1990128;28;3479413;-72
2023/10/13 02:00:41;;;;;;;;;10.00;7.75;;;;;23.55;57.00;101127.78;2030706;28;1822208;-72
2023/10/13 02:01:55;;;;;;;;;7.50;7.50;;;;;23.56;56.89;101123.25;2032017;28;1813913;-72
2023/10/13 02:03:14;;;;;;;;;7.67;7.67;;;;;23.55;57.10;101122.41;2018285;28;2739956;-72
2023/10/13 02:04:24;;;;;;;;;9.33;8.00;;;;;23.56;56.76;101115.19;2018127;28;3467945;-72
2023/10/13 02:05:36;;;;;;;;;9.00;9.00;;;;;23.55;56.84;101111.69;2033883;28;2746679;-72
2023/10/13 02:06:52;;;;;;;;;9.17;8.33;;;;;23.56;56.64;101110.69;2048794;28;1819133;-72
2023/10/13 02:08:02;;;;;;;;;6.67;6.67;;;;;23.56;56.69;101118.75;1993152;28;2735750;-72
2023/10/13 02:09:13;;;;;;;;;9.00;8.00;;;;;23.56;56.72;101118.75;2022209;28;3444051;-72
2023/10/13 02:10:27;;;;;;;;;6.00;6.00;;;;;23.56;56.58;101108.00;2028542;28;2740982;-72
2023/10/13 02:11:39;;;;;;;;;10.50;7.50;;;;;23.55;56.45;101106.31;2016651;28;2752368;-72
2023/10/13 02:12:55;;;;;;;;;10.00;8.00;;;;;23.56;56.74;101110.69;2016461;28;2762773;-72
2023/10/13 02:14:06;;;;;;;;;9.67;7.00;;;;;23.57;56.63;101101.69;2017858;28;3460677;-72
2023/10/13 02:15:26;;;;;;;;;10.00;7.00;;;;;23.57;56.82;101104.34;2020331;28;3472122;-72
2023/10/13 02:16:40;;;;;;;;;9.50;8.25;;;;;23.57;56.55;101090.94;2031840;28;1821112;-72
2023/10/13 02:17:52;;;;;;;;;11.00;9.00;;;;;23.58;56.85;101089.13;2012909;28;2758606;-72
2023/10/13 02:19:05;;;;;;;;;11.00;8.00;;;;;23.57;56.73;101088.25;2010533;28;2762768;-72
2023/10/13 02:20:15;;;;;;;;;7.00;7.00;;;;;23.57;56.93;101088.25;2026008;28;1815877;-72
2023/10/13 02:21:31;;;;;;;;;9.50;8.00;;;;;23.58;57.10;101081.91;2025939;28;1814867;-72
2023/10/13 02:22:51;;;;;;;;;8.75;7.00;;;;;23.58;56.72;101073.84;2028622;28;1825325;-72
2023/10/13 02:24:05;;;;;;;;;8.00;7.00;;;;;23.58;57.02;101081.06;2014587;28;2739970;-71
2023/10/13 02:26:48;;;;;;;;;9.50;7.00;;;;;23.58;56.48;101073.03;2011255;28;2743002;-71
2023/10/13 02:27:59;;;;;;;;;8.00;7.33;;;;;23.57;56.88;101069.47;2048415;28;1820089;-72
2023/10/13 02:29:13;;;;;;;;;7.00;7.00;;;;;23.58;56.77;101067.66;1993841;28;2736744;-72
2023/10/13 02:30:25;;;;;;;;;7.00;6.00;;;;;23.58;56.74;101059.63;2017764;28;2738795;-72
2023/10/13 02:31:37;;;;;;;;;9.50;8.00;;;;;23.58;56.70;101065.81;2014967;28;2738812;-72
2023/10/13 02:32:48;;;;;;;;;8.67;7.67;;;;;23.58;56.90;101059.63;2024830;28;1829426;-72
2023/10/13 02:34:00;;;;;;;;;7.50;5.50;;;;;23.58;56.92;101057.75;1994267;28;2744031;-72
2023/10/13 02:35:15;;;;;;;;;8.33;8.00;;;;;23.59;57.02;101045.19;2011283;28;3464842;-72
2023/10/13 02:36:36;;;;;;;;;8.67;7.00;;;;;23.59;56.89;101047.88;2015368;28;3445033;-72
2023/10/13 02:37:54;;;;;;;;;5.50;5.50;;;;;23.58;57.18;101047.03;2025331;28;1815373;-72
2023/10/13 02:39:07;;;;;;;;;8.50;8.00;;;;;23.58;57.08;101047.03;2047589;28;1816422;-72
2023/10/13 02:40:23;;;;;;;;;6.25;6.25;;;;;23.58;57.03;101038.16;2011044;28;1812738;-72
2023/10/13 02:41:37;;;;;;;;;9.00;6.50;;;;;23.58;57.22;101036.28;2017346;28;2742985;-72
2023/10/13 02:42:48;;;;;;;;;7.50;7.25;;;;;23.59;57.02;101043.38;2033266;28;1807531;-72
2023/10/13 02:43:59;;;;;;;;;9.00;8.00;;;;;23.58;57.03;101047.03;2020240;28;2740951;-72
2023/10/13 02:45:12;;;;;;;;;9.00;8.00;;;;;23.58;57.01;101049.72;2027528;28;2746697;-72
2023/10/13 02:46:25;;;;;;;;;7.00;7.00;;;;;23.59;57.03;101050.56;2010266;28;2735678;-72
2023/10/13 02:47:36;;;;;;;;;7.00;7.00;;;;;23.59;56.94;101056.78;2027866;28;1821118;-72
2023/10/13 02:48:53;;;;;;;;;9.67;8.50;;;;;23.59;56.91;101053.25;2056102;28;1821164;-72
2023/10/13 02:50:12;;;;;;;;;6.50;6.50;;;;;23.60;56.88;101054.97;2021589;28;1813856;-72
2023/10/13 02:51:35;;;;;;;;;8.50;6.00;;;;;23.59;57.06;101046.06;1989307;28;2737634;-72
2023/10/13 02:52:48;;;;;;;;;10.00;8.00;;;;;23.60;56.57;101057.66;2014460;28;2745072;-72
2023/10/13 02:54:02;;;;;;;;;7.50;7.25;;;;;23.59;56.41;101056.78;2027426;28;1810661;-73
2023/10/13 02:55:16;;;;;;;;;11.00;9.00;;;;;23.60;56.80;101055.81;2010766;28;2763786;-73
2023/10/13 02:56:27;;;;;;;;;9.25;8.00;;;;;23.61;56.45;101051.28;2033010;28;1829415;-72
2023/10/13 02:57:39;;;;;;;;;10.00;8.00;;;;;23.60;56.47;101039.72;2016850;28;2766923;-72
2023/10/13 02:58:53;;;;;;;;;6.67;6.67;;;;;23.62;56.69;101042.28;2019580;28;3453732;-72
2023/10/13 03:00:15;;;;;;;;;11.00;7.75;;;;;23.62;56.87;101041.41;2032408;28;1815883;-73
2023/10/13 03:01:28;;;;;;;;;10.00;7.25;;;;;23.59;56.89;101034.47;2026702;28;1829470;-73
2023/10/13 03:02:45;;;;;;;;;8.67;7.00;;;;;23.59;56.50;101032.66;2011403;28;2740905;-73
2023/10/13 03:03:58;;;;;;;;;9.50;7.25;;;;;23.59;57.03;101031.78;2030791;28;1818055;-73
2023/10/13 03:05:09;;;;;;;;;9.00;6.67;;;;;23.59;57.02;101032.66;2011067;28;3448210;-73
2023/10/13 03:06:23;;;;;;;;;6.00;6.00;;;;;23.60;56.70;101028.13;2013609;28;2732568;-73
2023/10/13 03:07:36;;;;;;;;;11.00;8.00;;;;;23.58;56.87;101033.63;2010470;28;3480463;-73
2023/10/13 03:08:46;;;;;;;;;7.00;5.00;;;;;23.60;56.52;101037.03;2020172;28;2744081;-73
2023/10/13 03:10:00;;;;;;;;;11.00;7.75;;;;;23.60;57.24;101038.88;2047371;28;1819052;-73
2023/10/13 03:11:11;;;;;;;;;9.50;7.50;;;;;23.59;57.70;101038.00;1994473;28;2758621;-71
2023/10/13 03:12:24;;;;;;;;;11.80;8.60;;;;;23.57;57.26;101036.44;2047804;28;1811789;-71
2023/10/13 03:13:35;;;;;;;;;8.33;8.33;;;;;23.55;58.17;101035.72;2019078;28;3453358;-71
2023/10/13 03:14:48;;;;;;;;;6.00;6.00;;;;;23.52;57.35;101031.47;2021698;28;2738795;-71
2023/10/13 03:16:11;;;;;;;;;7.67;7.17;;;;;23.50;57.66;101022.69;2047816;28;1821120;-72
2023/10/13 03:17:33;;;;;;;;;9.00;8.00;;;;;23.48;57.45;101017.44;2010582;28;1811704;-72
2023/10/13 03:18:56;;;;;;;;;10.00;7.00;;;;;23.48;58.25;101027.31;1986674;28;2746102;-72
2023/10/13 03:20:15;;;;;;;;;10.00;8.67;;;;;23.45;58.45;101014.16;2019095;28;1823276;-72
2023/10/13 03:21:29;;;;;;;;;11.00;10.00;;;;;23.43;57.81;101026.84;1992895;28;2780492;-72
2023/10/13 03:22:41;;;;;;;;;8.00;8.00;;;;;23.42;57.38;101019.78;2030724;28;1816922;-71
2023/10/13 03:23:54;;;;;;;;;12.00;7.00;;;;;23.41;57.71;101018.09;1988346;28;2766988;-71
2023/10/13 03:25:06;;;;;;;;;9.50;9.00;;;;;23.40;58.10;101016.38;2010149;28;2748205;-72
2023/10/13 03:26:19;;;;;;;;;5.00;5.00;;;;;23.37;57.75;101012.09;2012939;28;3456518;-71
2023/10/13 03:27:40;;;;;;;;;12.50;9.00;;;;;23.37;58.32;101010.28;2017027;28;2764852;-71
2023/10/13 03:28:52;;;;;;;;;10.25;6.50;;;;;23.37;57.77;101012.97;2032749;28;1822128;-71
2023/10/13 03:30:09;;;;;;;;;8.00;7.00;;;;;23.38;57.74;101011.16;2018583;28;2734675;-71
2023/10/13 03:31:27;;;;;;;;;6.50;6.50;;;;;23.37;57.77;101015.66;2033364;28;1814874;-71
2023/10/13 03:32:43;;;;;;;;;9.50;8.00;;;;;23.40;57.62;101013.69;2014798;28;2752332;-71
2023/10/13 03:34:00;;;;;;;;;7.33;7.33;;;;;23.40;57.62;101002.97;2043092;28;1821162;-71
2023/10/13 03:35:14;;;;;;;;;11.00;8.50;;;;;23.41;57.63;100996.63;1994553;28;2755477;-70
2023/10/13 03:37:55;;;;;;;;;9.50;9.00;;;;;23.41;57.67;101000.13;2011689;28;2760681;-70
2023/10/13 03:39:11;;;;;;;;;9.43;7.57;;;;;23.42;57.58;100999.16;2050321;28;3485601;-70
2023/10/13 03:41:32;;;;;;;;;7.00;7.00;;;;;23.44;57.43;100991.84;2015329;28;2735784;-70
2023/10/13 03:42:44;;;;;;;;;9.00;7.00;;;;;23.44;57.64;100997.19;2043439;28;1825274;-70
2023/10/13 03:44:13;;;;;;;;;11.67;8.83;;;;;23.45;57.46;100993.56;2027357;28;1820023;-70
2023/10/13 03:45:24;;;;;;;;;8.00;8.00;;;;;23.45;57.50;100993.56;1996738;28;2741916;-70
2023/10/13 03:46:40;;;;;;;;;8.50;8.00;;;;;23.44;57.92;100990.97;2046681;28;1829495;-70
2023/10/13 03:47:54;;;;;;;;;10.00;8.17;;;;;23.43;57.47;100995.53;2018003;28;1821120;-70
2023/10/13 03:49:06;;;;;;;;;9.25;8.25;;;;;23.43;57.69;100989.28;2003127;28;1829480;-70
2023/10/13 03:50:16;;;;;;;;;7.50;7.50;;;;;23.43;57.78;100989.28;2010442;28;2735678;-71
2023/10/13 03:51:33;;;;;;;;;9.00;6.50;;;;;23.44;57.43;100980.25;2024459;28;2742423;-71
2023/10/13 03:52:45;;;;;;;;;7.25;7.25;;;;;23.43;57.55;100981.25;2025248;28;1815950;-71
2023/10/13 03:53:56;;;;;;;;;7.67;5.00;;;;;23.45;57.27;100976.59;2017986;28;2745124;-71
2023/10/13 03:55:08;;;;;;;;;9.00;7.00;;;;;23.45;57.70;100974.78;2010382;28;3457520;-71
2023/10/13 03:56:38;;;;;;;;;9.00;7.00;;;;;23.46;56.97;100975.59;2011706;28;2739841;-72
2023/10/13 03:57:50;;;;;;;;;9.00;8.00;;;;;23.46;57.18;100975.59;2018086;28;2732570;-72
2023/10/13 03:59:09;;;;;;;;;12.00;9.00;;;;;23.45;57.45;100981.97;2008937;28;2766955;-72
2023/10/13 04:00:23;;;;;;;;;8.67;7.00;;;;;23.47;57.20;100974.63;2019542;28;2733743;-72
2023/10/13 04:04:34;;;;;;;;;12.00;7.00;;;;;23.47;57.33;100964.78;2017556;28;2758626;-71
2023/10/13 04:06:00;;;;;;;;;10.00;7.50;;;;;23.47;57.46;100970.13;2017236;28;2761714;-73
2023/10/13 04:17:45;;;;;;;;;9.67;7.67;;;;;23.47;57.29;100961.22;2013887;28;3465870;-71
2023/10/13 04:24:09;;;;;;;;;10.33;8.00;;;;;23.46;57.06;100952.31;2048503;28;1829965;-70
2023/10/13 04:25:35;;;;;;;;;8.00;7.50;;;;;23.44;57.20;100948.94;1989429;28;2751347;-70
2023/10/13 04:28:35;;;;;;;;;9.17;8.50;;;;;23.43;56.95;100946.38;2047880;28;1819048;-70
2023/10/13 04:30:10;;;;;;;;;9.00;9.00;;;;;23.41;57.01;100948.34;1991624;28;2758960;-71
2023/10/13 04:31:43;;;;;;;;;10.50;9.50;;;;;23.38;56.95;100942.25;2010900;28;2777374;-72
2023/10/13 04:33:15;;;;;;;;;12.00;10.00;;;;;23.38;56.77;100942.25;2000755;28;1841976;-71
2023/10/13 04:34:28;;;;;;;;;9.50;9.00;;;;;23.40;56.96;100941.28;2010811;28;2761727;-71
2023/10/13 04:35:47;;;;;;;;;11.50;9.50;;;;;23.40;57.02;100930.56;2016150;28;2783589;-71
2023/10/13 04:37:22;;;;;;;;;8.25;7.25;;;;;23.38;56.94;100931.53;2030208;28;1829454;-71
2023/10/13 04:38:55;;;;;;;;;7.00;7.00;;;;;23.38;56.98;100934.19;2018245;28;3443980;-71
2023/10/13 04:40:11;;;;;;;;;8.00;7.50;;;;;23.40;57.27;100930.56;2042702;28;1819076;-71
2023/10/13 04:41:58;;;;;;;;;8.00;7.00;;;;;23.39;57.00;100929.69;2003177;28;1819009;-71
2023/10/13 04:44:49;;;;;;;;;10.00;8.00;;;;;23.41;56.93;100930.41;2008834;28;2766930;-71
2023/10/13 04:46:25;;;;;;;;;10.67;9.17;;;;;23.40;56.80;100923.38;2040586;28;1823813;-71
2023/10/13 04:47:42;;;;;;;;;8.75;7.25;;;;;23.41;56.97;100929.59;2005183;28;1819067;-71
2023/10/13 04:49:00;;;;;;;;;12.00;10.83;;;;;23.40;56.49;100919.81;2044453;28;1823289;-71
2023/10/13 04:50:22;;;;;;;;;11.50;6.00;;;;;23.40;56.59;100914.47;1993822;28;2774227;-71
2023/10/13 04:51:58;;;;;;;;;8.00;7.00;;;;;23.38;56.59;100910.06;2010870;28;2740957;-71
2023/10/13 04:53:30;;;;;;;;;8.17;7.50;;;;;23.39;56.46;100905.56;2049174;28;1820074;-71
2023/10/13 04:57:46;;;;;;;;;10.50;7.00;;;;;23.42;56.45;100904.44;2006775;28;2753783;-71
2023/10/13 04:59:17;;;;;;;;;10.83;8.33;;;;;23.42;56.64;100901.75;2020449;28;1821166;-71
2023/10/13 05:00:56;;;;;;;;;7.67;7.67;;;;;23.41;56.77;100905.44;2021413;28;1820103;-71
2023/10/13 05:03:53;;;;;;;;;7.83;7.17;;;;;23.38;56.23;100904.69;2043791;28;1816977;-71
2023/10/13 05:46:20;;;;;;;;;10.00;9.00;;;;;23.44;55.69;100856.88;2009014;28;2756522;-72
2023/10/13 06:28:41;;;;;;;;;15.00;13.50;;;;;23.45;55.20;100848.72;2016347;28;2800259;-72
2023/10/13 06:29:55;;;;;;;;;14.67;13.33;;;;;23.46;55.10;100860.28;2008932;28;3528458;-71
2023/10/13 06:31:08;;;;;;;;;13.00;13.00;;;;;23.46;55.03;100855.78;2012859;28;2800332;-71
2023/10/13 06:32:26;;;;;;;;;18.00;12.67;;;;;23.46;55.25;100847.72;2012663;28;3531469;-71
2023/10/13 06:33:44;;;;;;;;;12.00;12.00;;;;;23.46;55.38;100855.78;2018133;28;2787774;-71
2023/10/13 06:34:58;;;;;;;;;13.00;13.00;;;;;23.47;55.04;100853.94;2017681;28;2781537;-71
2023/10/13 06:36:09;;;;;;;;;14.00;13.00;;;;;23.45;54.94;100854.09;2010766;28;2772155;-71
2023/10/13 06:37:30;;;;;;;;;17.00;13.33;;;;;23.45;55.18;100847.88;2013736;28;2803528;-72
2023/10/13 06:38:41;;;;;;;;;14.50;12.00;;;;;23.43;55.25;100853.38;2010505;28;2795068;-71
2023/10/13 06:40:03;;;;;;;;;14.50;14.00;;;;;23.43;54.65;100849.84;2010960;28;2795063;-70
2023/10/13 06:41:30;;;;;;;;;14.67;11.33;;;;;23.43;55.24;100852.53;1985125;28;2787823;-71
2023/10/13 06:42:43;;;;;;;;;14.00;13.00;;;;;23.42;54.95;100853.50;2016716;28;2804478;-71
2023/10/13 06:44:00;;;;;;;;;16.50;14.00;;;;;23.43;55.06;100849.84;2011476;28;2805487;-71
2023/10/13 06:45:11;;;;;;;;;12.50;11.00;;;;;23.42;54.81;100850.81;1990202;28;2792963;-71
2023/10/13 06:46:23;;;;;;;;;18.33;16.33;;;;;23.43;55.14;100856.06;1985019;28;3557539;-71
2023/10/13 06:47:42;;;;;;;;;15.60;14.60;;;;;23.44;54.90;100851.53;2033173;28;3524192;-71
2023/10/13 06:48:53;;;;;;;;;12.50;12.50;;;;;23.44;55.41;100844.34;2017922;28;2800295;-71
2023/10/13 06:50:06;;;;;;;;;17.67;14.00;;;;;23.44;55.03;100847.03;2016716;28;2811799;-71
2023/10/13 06:51:25;;;;;;;;;13.00;13.00;;;;;23.46;54.99;100845.03;2017057;28;2811720;-71
2023/10/13 06:52:37;;;;;;;;;14.33;13.00;;;;;23.46;54.62;100845.03;1988913;28;3519001;-71
2023/10/13 06:53:49;;;;;;;;;13.50;12.00;;;;;23.47;54.83;100840.53;2012515;28;2786714;-71
2023/10/13 06:55:05;;;;;;;;;14.50;12.50;;;;;23.47;54.67;100851.25;1995720;28;2787776;-71
2023/10/13 11:32:57;;;;;;;;;10.83;9.00;;;;;23.68;52.94;100708.22;2425246;23;2753427;31
2023/10/13 11:34:11;;;;;;;;;6.00;6.00;;;;;23.68;53.15;100708.22;1921631;29;2742979;-71
2023/10/13 11:35:24;;;;;;;;;9.00;9.00;;;;;23.69;53.03;100700.03;1977005;29;1819064;-71
2023/10/13 11:36:35;;;;;;;;;9.67;7.33;;;;;23.69;52.61;100689.31;1921941;29;3470096;-71
2023/10/13 11:38:13;;;;;;;;;12.00;8.00;;;;;23.71;52.86;100694.53;1946238;29;2742987;-71
2023/10/13 11:39:33;;;;;;;;;9.00;7.83;;;;;23.71;52.91;100703.41;1979287;29;1819057;-71
2023/10/13 11:40:43;;;;;;;;;8.50;7.50;;;;;23.72;53.24;100690.88;1926153;29;2746179;-71
2023/10/13 11:41:55;;;;;;;;;10.25;7.25;;;;;23.73;53.00;100692.53;1973893;29;1819051;-71
2023/10/13 11:43:05;;;;;;;;;11.00;8.00;;;;;23.74;52.47;100698.75;1945156;29;2764887;-71
2023/10/13 11:45:35;;;;;;;;;9.67;7.50;;;;;23.75;52.85;100711.19;1959037;29;1820639;-71
2023/10/13 11:46:55;;;;;;;;;9.50;8.00;;;;;23.76;52.77;100704.84;1926824;29;2742974;-71
2023/10/13 11:48:14;;;;;;;;;9.50;9.00;;;;;23.77;52.76;100699.34;1978309;29;1821145;-71
2023/10/13 11:50:38;;;;;;;;;8.50;8.00;;;;;23.75;52.71;100693.28;1954029;29;2749216;-71
2023/10/13 11:51:50;;;;;;;;;8.00;8.00;;;;;23.77;52.45;100693.97;1947935;29;2741920;-71
2023/10/13 11:53:07;;;;;;;;;8.00;7.67;;;;;23.78;52.59;100692.16;1978780;29;1819076;-71
2023/10/13 11:54:19;;;;;;;;;7.33;6.67;;;;;23.77;52.76;100685.94;1926871;29;2732589;-71
2023/10/13 11:55:32;;;;;;;;;11.67;7.83;;;;;23.78;52.69;100686.78;1978176;29;1819086;-71
2023/10/13 11:56:44;;;;;;;;;6.67;6.00;;;;;23.79;52.60;100688.47;1928346;29;2735682;-71
2023/10/13 11:57:59;;;;;;;;;7.00;7.00;;;;;23.78;52.69;100686.78;1948852;29;3447128;-71
2023/10/13 11:59:28;;;;;;;;;9.00;9.00;;;;;23.79;52.91;100686.63;1946543;29;2740872;-71
2023/10/13 12:00:53;;;;;;;;;8.00;8.00;;;;;23.80;53.00;100690.16;1925384;29;2744017;-71
2023/10/13 12:05:11;;;;;;;;;9.00;7.00;;;;;23.79;52.23;100683.94;1948264;29;2746084;-71
2023/10/13 12:06:33;;;;;;;;;8.00;7.25;;;;;23.79;52.74;100683.94;1962511;29;1837772;-71
2023/10/13 12:07:48;;;;;;;;;6.00;6.00;;;;;23.79;52.83;100678.59;1948926;29;2734633;-71
2023/10/13 12:09:13;;;;;;;;;11.00;11.00;;;;;23.79;52.78;100675.06;1945535;29;2789837;-71
2023/10/13 12:10:33;;;;;;;;;9.00;8.00;;;;;23.79;52.85;100681.28;1924396;29;2751296;-71
2023/10/13 12:11:54;;;;;;;;;9.75;8.50;;;;;23.79;52.61;100673.22;1961318;29;1827399;-71
2023/10/13 12:13:09;;;;;;;;;10.33;9.00;;;;;23.79;52.50;100681.28;1978464;29;1820080;-71
2023/10/13 12:14:29;;;;;;;;;9.67;9.67;;;;;23.79;52.63;100673.22;1953373;29;1831594;-71
2023/10/13 12:15:51;;;;;;;;;10.33;7.83;;;;;23.80;53.00;100671.38;1963634;29;1816963;-71
2023/10/13 12:17:10;;;;;;;;;10.33;10.00;;;;;23.79;52.98;100673.22;1955395;29;1819573;-71
2023/10/13 12:18:22;;;;;;;;;9.50;7.00;;;;;23.79;52.62;100667.84;1924413;29;2748163;-71
2023/10/13 12:19:38;;;;;;;;;9.50;6.33;;;;;23.79;52.84;100662.50;1986009;29;1820083;-71
2023/10/13 12:20:49;;;;;;;;;8.00;7.00;;;;;23.80;52.79;100663.34;1932973;29;2726289;-71